createdAt,value
2022-11-05T00:01:29.582Z,1.40
2022-11-05T00:04:51.516Z,1.58
2022-11-05T00:08:14.184Z,1.50
2022-11-05T00:11:18.477Z,1.60
2022-11-05T00:14:39.861Z,1.30
2022-11-05T00:17:43.618Z,1.75
2022-11-05T00:20:46.298Z,1.50
2022-11-05T00:24:07.803Z,1.40
2022-11-05T00:27:10.801Z,1.43
2022-11-05T00:30:24.773Z,1.42
2022-11-05T00:33:27.657Z,1.55
2022-11-05T00:36:30.774Z,1.60
2022-11-05T00:39:34.680Z,1.60
2022-11-05T00:42:58.593Z,1.73
2022-11-05T00:46:01.142Z,1.80
2022-11-05T00:49:41.653Z,1.48
2022-11-05T00:52:56.443Z,1.98
2022-11-05T00:56:00.518Z,2.13
2022-11-05T00:59:03.085Z,1.90
2022-11-05T01:02:06.149Z,1.73
2022-11-05T01:05:09.324Z,2.00
2022-11-05T01:08:13.964Z,1.65
2022-11-05T01:11:34.465Z,1.80
2022-11-05T01:14:37.315Z,1.93
2022-11-05T01:17:39.858Z,1.83
2022-11-05T01:20:42.832Z,1.85
2022-11-05T01:23:45.417Z,2.00
2022-11-05T01:26:48.363Z,2.00
2022-11-05T01:29:50.897Z,1.77
2022-11-05T01:32:55.243Z,2.20
2022-11-05T01:35:58.195Z,2.08
2022-11-05T01:39:02.154Z,1.77
2022-11-05T01:42:15.072Z,1.80
2022-11-05T01:45:24.124Z,2.17
2022-11-05T01:48:34.089Z,2.00
2022-11-05T01:51:37.308Z,1.92
2022-11-05T01:54:40.110Z,1.77
2022-11-05T01:57:44.132Z,1.90
2022-11-05T02:00:47.431Z,2.07
2022-11-05T02:03:58.424Z,2.20
2022-11-05T02:07:03.217Z,2.20
2022-11-05T02:10:10.631Z,2.30
2022-11-05T02:13:13.617Z,2.20
2022-11-05T02:16:43.883Z,2.40
2022-11-05T02:20:19.654Z,2.08
2022-11-05T02:23:44.673Z,2.00
2022-11-05T02:27:00.242Z,3.60
2022-11-05T02:30:26.460Z,3.70
2022-11-05T02:33:57.171Z,3.73
2022-11-05T02:37:09.471Z,2.80
2022-11-05T02:40:34.820Z,2.20
2022-11-05T02:43:47.376Z,2.28
2022-11-05T02:47:16.990Z,2.27
2022-11-05T02:50:28.029Z,2.60
2022-11-05T02:53:58.999Z,2.22
2022-11-05T02:57:04.908Z,2.08
2022-11-05T03:00:46.645Z,2.20
2022-11-05T03:03:54.008Z,1.83
2022-11-05T03:07:44.230Z,2.03
2022-11-05T03:10:58.450Z,2.33
2022-11-05T03:14:27.405Z,2.22
2022-11-05T03:17:38.789Z,2.03
2022-11-05T03:20:48.994Z,2.23
2022-11-05T03:23:56.752Z,2.03
2022-11-05T03:27:08.011Z,2.10
2022-11-05T03:30:13.106Z,2.37
2022-11-05T03:33:21.415Z,2.05
2022-11-05T03:36:29.692Z,2.10
2022-11-05T03:39:38.938Z,1.90
2022-11-05T03:42:46.429Z,1.87
2022-11-05T03:45:57.500Z,2.20
2022-11-05T03:49:04.552Z,1.90
2022-11-05T03:52:17.334Z,2.00
2022-11-05T03:55:26.797Z,2.10
2022-11-05T03:58:31.104Z,2.28
2022-11-05T04:01:33.973Z,2.25
2022-11-05T04:04:37.382Z,2.45
2022-11-05T04:07:58.876Z,2.10
2022-11-05T04:11:20.313Z,2.20
2022-11-05T04:14:23.117Z,1.77
2022-11-05T04:17:25.982Z,2.00
2022-11-05T04:20:47.069Z,2.08
2022-11-05T04:24:08.428Z,2.30
2022-11-05T04:27:11.551Z,2.57
2022-11-05T04:30:19.866Z,3.28
2022-11-05T04:33:22.526Z,3.08
2022-11-05T04:36:25.361Z,3.12
2022-11-05T04:39:27.922Z,2.80
2022-11-05T04:42:30.729Z,2.50
2022-11-05T04:45:35.343Z,2.03
2022-11-05T04:48:39.016Z,3.08
2022-11-05T04:51:41.552Z,3.55
2022-11-05T04:54:44.476Z,7.07
2022-11-05T04:57:51.238Z,4.83
2022-11-05T05:00:54.222Z,3.90
2022-11-05T05:03:56.895Z,3.50
2022-11-05T05:06:59.768Z,2.70
2022-11-05T05:10:03.931Z,2.97
2022-11-05T05:13:06.888Z,2.70
2022-11-05T05:16:17.498Z,3.37
2022-11-05T05:19:20.424Z,2.97
2022-11-05T05:22:22.987Z,2.75
2022-11-05T05:25:25.920Z,3.10
2022-11-05T05:28:28.611Z,2.73
2022-11-05T05:31:31.567Z,2.70
2022-11-05T05:34:34.176Z,2.10
2022-11-05T05:37:37.111Z,2.03
2022-11-05T05:40:41.018Z,2.23
2022-11-05T05:43:44.114Z,2.50
2022-11-05T05:46:46.746Z,2.00
2022-11-05T05:49:49.676Z,1.67
2022-11-05T05:52:53.385Z,2.00
2022-11-05T05:55:58.856Z,1.80
2022-11-05T05:59:01.468Z,1.40
2022-11-05T06:02:04.522Z,1.77
2022-11-05T06:05:08.093Z,1.73
2022-11-05T06:08:10.697Z,1.80
2022-11-05T06:11:13.963Z,1.70
2022-11-05T06:14:16.570Z,2.00
2022-11-05T06:17:19.386Z,2.00
2022-11-05T06:20:22.333Z,2.08
2022-11-05T06:23:25.170Z,2.20
2022-11-05T06:26:28.478Z,1.87
2022-11-05T06:29:31.565Z,2.00
2022-11-05T06:32:34.069Z,2.00
2022-11-05T06:35:36.969Z,2.00
2022-11-05T06:38:39.824Z,1.45
2022-11-05T06:42:12.006Z,1.90
2022-11-05T06:45:07.987Z,1.97
2022-11-05T06:48:11.271Z,1.30
2022-11-05T06:51:13.749Z,1.90
2022-11-05T06:54:16.694Z,1.85
2022-11-05T06:57:19.232Z,1.50
2022-11-05T07:00:22.744Z,1.90
2022-11-05T07:03:26.417Z,1.67
2022-11-05T07:06:34.367Z,1.80
2022-11-05T07:09:42.698Z,1.60
2022-11-05T07:12:45.653Z,1.70
2022-11-05T07:15:48.274Z,2.00
2022-11-05T07:18:53.060Z,1.70
2022-11-05T07:21:55.640Z,1.70
2022-11-05T07:24:58.610Z,2.10
2022-11-05T07:28:01.487Z,2.23
2022-11-05T07:31:05.668Z,2.20
2022-11-05T07:34:09.230Z,1.95
2022-11-05T07:37:12.230Z,1.52
2022-11-05T07:40:16.475Z,1.95
2022-11-05T07:43:20.022Z,1.90
2022-11-05T07:46:22.619Z,2.17
2022-11-05T07:49:26.217Z,2.03
2022-11-05T07:52:28.716Z,2.20
2022-11-05T07:55:32.050Z,1.95
2022-11-05T07:58:37.134Z,2.03
2022-11-05T08:01:40.291Z,2.27
2022-11-05T08:04:43.244Z,2.30
2022-11-05T08:07:45.819Z,2.15
2022-11-05T08:10:48.661Z,2.00
2022-11-05T08:13:52.245Z,1.63
2022-11-05T08:16:55.137Z,1.60
2022-11-05T08:19:57.710Z,1.98
2022-11-05T08:23:00.724Z,2.30
2022-11-05T08:26:04.729Z,2.10
2022-11-05T08:29:09.922Z,2.30
2022-11-05T08:32:12.592Z,2.13
2022-11-05T08:35:15.514Z,2.37
2022-11-05T08:38:20.244Z,2.50
2022-11-05T08:41:23.308Z,1.50
2022-11-05T08:44:25.954Z,2.00
2022-11-05T08:47:30.132Z,1.83
2022-11-05T08:50:34.006Z,2.50
2022-11-05T08:53:36.846Z,2.08
2022-11-05T08:56:40.072Z,1.92
2022-11-05T08:59:42.998Z,2.70
2022-11-05T09:02:46.000Z,2.40
2022-11-05T09:05:48.939Z,2.65
2022-11-05T09:08:51.603Z,2.40
2022-11-05T09:15:17.250Z,2.50
2022-11-05T09:18:21.174Z,2.60
2022-11-05T09:21:23.842Z,3.28
2022-11-05T09:24:27.946Z,2.75
2022-11-05T09:27:30.555Z,2.70
2022-11-05T09:30:33.416Z,2.87
2022-11-05T09:33:37.870Z,3.27
2022-11-05T09:36:40.856Z,3.80
2022-11-05T09:39:44.497Z,4.60
2022-11-05T09:42:50.397Z,3.10
2022-11-05T09:45:57.089Z,3.40
2022-11-05T09:49:06.153Z,2.23
2022-11-05T09:52:22.747Z,2.05
2022-11-05T09:55:36.050Z,2.97
2022-11-05T09:58:47.696Z,3.37
2022-11-05T10:01:52.959Z,3.60
2022-11-05T10:05:09.376Z,3.33
2022-11-05T10:08:19.366Z,2.85
2022-11-05T10:11:30.683Z,2.83
2022-11-05T10:14:39.287Z,3.17
2022-11-05T10:17:47.230Z,2.90
2022-11-05T10:20:49.807Z,3.05
2022-11-05T10:23:53.027Z,2.62
2022-11-05T10:26:56.519Z,3.17
2022-11-05T10:30:00.416Z,3.30
2022-11-05T10:33:06.839Z,2.80
2022-11-05T10:36:32.459Z,3.20
2022-11-05T10:39:35.306Z,2.85
2022-11-05T10:43:26.317Z,3.00
2022-11-05T10:46:45.507Z,3.33
2022-11-05T10:50:04.187Z,2.40
2022-11-05T10:53:21.774Z,3.78
2022-11-05T10:56:36.749Z,4.37
2022-11-05T10:59:44.690Z,3.65
2022-11-05T11:02:56.948Z,3.67
2022-11-05T11:06:01.481Z,3.80
2022-11-05T11:09:17.915Z,4.70
2022-11-05T11:12:24.054Z,4.20
2022-11-05T11:15:35.318Z,3.90
2022-11-05T11:18:40.483Z,2.97
2022-11-05T11:21:43.534Z,3.60
2022-11-05T11:24:49.624Z,3.40
2022-11-05T11:27:53.424Z,3.65
2022-11-05T11:31:05.206Z,2.85
2022-11-05T11:34:22.779Z,4.20
2022-11-05T11:37:37.561Z,3.70
2022-11-05T11:40:40.762Z,3.22
2022-11-05T11:43:45.201Z,3.10
2022-11-05T11:46:52.446Z,2.87
2022-11-05T11:49:57.870Z,2.93
2022-11-05T11:53:36.222Z,2.80
2022-11-05T11:56:47.378Z,3.33
2022-11-05T12:03:46.037Z,2.40
2022-11-05T12:07:10.010Z,3.20
2022-11-05T12:10:30.937Z,3.83
2022-11-05T12:13:43.045Z,3.30
2022-11-05T12:17:21.569Z,3.55
2022-11-05T12:20:58.372Z,3.67
2022-11-05T12:24:31.092Z,2.33
2022-11-05T12:27:48.815Z,2.70
2022-11-05T12:31:32.794Z,2.47
2022-11-05T12:35:23.124Z,2.60
2022-11-05T12:39:13.507Z,2.83
2022-11-05T12:42:54.400Z,3.17
2022-11-05T12:46:26.324Z,3.47
2022-11-05T12:49:49.643Z,3.67
2022-11-05T12:53:01.354Z,3.28
2022-11-05T12:56:18.280Z,2.53
2022-11-05T12:59:28.184Z,2.67
2022-11-05T13:02:34.641Z,2.47
2022-11-05T13:05:45.444Z,2.53
2022-11-05T13:09:15.929Z,2.70
2022-11-05T13:12:24.946Z,3.05
2022-11-05T13:15:39.080Z,2.87
2022-11-05T13:18:56.800Z,2.33
2022-11-05T13:22:28.587Z,3.03
2022-11-05T13:25:38.034Z,2.72
2022-11-05T13:28:48.395Z,2.83
2022-11-05T13:32:32.484Z,3.00
2022-11-05T13:35:46.378Z,2.83
2022-11-05T13:38:59.925Z,2.50
2022-11-05T13:42:46.087Z,2.62
2022-11-05T13:46:06.078Z,2.50
2022-11-05T13:49:36.797Z,2.10
2022-11-05T13:52:46.642Z,2.67
2022-11-05T13:55:58.868Z,2.08
2022-11-05T13:59:17.003Z,2.35
2022-11-05T14:02:29.304Z,1.55
2022-11-05T14:05:41.883Z,2.13
2022-11-05T14:08:46.574Z,2.20
2022-11-05T14:11:54.007Z,2.33
2022-11-05T14:15:03.746Z,2.10
2022-11-05T14:18:35.126Z,2.53
2022-11-05T14:21:52.466Z,1.93
2022-11-05T14:24:56.861Z,2.17
2022-11-05T14:28:00.253Z,2.30
2022-11-05T14:31:47.253Z,2.80
2022-11-05T14:35:21.342Z,2.35
2022-11-05T14:38:27.873Z,2.37
2022-11-05T14:41:30.951Z,2.60
2022-11-05T14:44:35.928Z,2.15
2022-11-05T14:47:43.009Z,2.60
2022-11-05T14:50:46.631Z,2.08
2022-11-05T14:53:50.078Z,2.23
2022-11-05T14:56:56.503Z,2.60
2022-11-05T15:00:01.156Z,2.85
2022-11-05T15:03:29.327Z,2.47
2022-11-05T15:06:37.431Z,3.15
2022-11-05T15:09:41.818Z,2.90
2022-11-05T15:12:52.700Z,3.87
2022-11-05T15:15:56.806Z,2.87
2022-11-05T15:19:00.400Z,2.70
2022-11-05T15:22:19.969Z,3.17
2022-11-05T15:25:53.491Z,3.30
2022-11-05T15:28:58.360Z,3.27
2022-11-05T15:32:01.625Z,2.75
2022-11-05T15:35:23.660Z,3.53
2022-11-05T15:38:35.062Z,4.07
2022-11-05T15:41:38.693Z,2.77
2022-11-05T15:44:43.964Z,3.23
2022-11-05T15:47:47.259Z,3.60
2022-11-05T15:50:50.276Z,3.28
2022-11-05T15:57:30.096Z,3.70
2022-11-05T16:00:35.687Z,3.77
2022-11-05T16:03:42.532Z,6.10
2022-11-05T16:06:50.321Z,3.78
2022-11-05T16:10:01.591Z,3.60
2022-11-05T16:13:34.115Z,3.50
2022-11-05T16:16:37.386Z,3.50
2022-11-05T16:19:42.296Z,3.12
2022-11-05T16:22:47.794Z,3.80
2022-11-05T16:25:51.196Z,4.97
2022-11-05T16:28:54.843Z,3.90
2022-11-05T16:32:01.715Z,2.90
2022-11-05T16:35:06.839Z,3.10
2022-11-05T16:38:13.030Z,2.37
2022-11-05T16:41:20.367Z,2.08
2022-11-05T16:44:23.535Z,3.10
2022-11-05T16:47:26.979Z,2.97
2022-11-05T16:50:33.106Z,3.17
2022-11-05T16:53:36.081Z,3.12
2022-11-05T16:56:40.484Z,3.25
2022-11-05T16:59:44.016Z,3.10
2022-11-05T17:02:50.012Z,2.70
2022-11-05T17:05:53.069Z,3.35
2022-11-05T17:08:55.746Z,2.67
2022-11-05T17:12:01.192Z,2.53
2022-11-05T17:15:23.276Z,3.10
2022-11-05T17:18:26.648Z,3.20
2022-11-05T17:21:29.751Z,3.58
2022-11-05T17:24:32.991Z,3.83
2022-11-05T17:27:35.917Z,3.80
2022-11-05T17:30:41.700Z,3.60
2022-11-05T17:33:45.360Z,2.37
2022-11-05T17:36:48.630Z,3.58
2022-11-05T17:39:52.550Z,3.47
2022-11-05T17:42:55.642Z,4.00
2022-11-05T17:46:04.276Z,3.73
2022-11-05T17:49:08.080Z,3.73
2022-11-05T17:52:11.355Z,4.95
2022-11-05T17:55:18.921Z,4.07
2022-11-05T17:58:21.709Z,4.40
2022-11-05T18:01:30.897Z,4.00
2022-11-05T18:04:34.297Z,3.83
2022-11-05T18:07:37.431Z,3.60
2022-11-05T18:10:41.653Z,3.62
2022-11-05T18:13:44.679Z,3.45
2022-11-05T18:16:48.201Z,3.30
2022-11-05T18:19:50.754Z,2.93
2022-11-05T18:22:56.829Z,4.20
2022-11-05T18:26:01.397Z,3.70
2022-11-05T18:29:06.766Z,4.28
2022-11-05T18:32:10.184Z,4.47
2022-11-05T18:35:14.674Z,4.57
2022-11-05T18:38:17.549Z,4.30
2022-11-05T18:41:22.003Z,4.15
2022-11-05T18:44:25.533Z,5.68
2022-11-05T18:47:29.016Z,5.33
2022-11-05T18:50:32.283Z,4.80
2022-11-05T18:53:35.846Z,4.40
2022-11-05T18:56:45.321Z,4.60
2022-11-05T18:59:48.556Z,4.70
2022-11-05T19:02:51.357Z,4.27
2022-11-05T19:05:54.663Z,4.37
2022-11-05T19:08:57.363Z,4.35
2022-11-05T19:12:00.778Z,4.30
2022-11-05T19:15:04.416Z,3.90
2022-11-05T19:18:07.841Z,4.80
2022-11-05T19:21:14.472Z,4.60
2022-11-05T19:24:19.049Z,4.70
2022-11-05T19:27:22.257Z,4.37
2022-11-05T19:30:27.595Z,4.15
2022-11-05T19:33:31.377Z,4.07
2022-11-05T19:36:34.970Z,4.30
2022-11-05T19:39:40.294Z,3.70
2022-11-05T19:42:43.627Z,3.90
2022-11-05T19:45:46.649Z,4.45
2022-11-05T19:48:50.322Z,4.40
2022-11-05T19:51:53.285Z,4.40
2022-11-05T19:54:56.886Z,4.75
2022-11-05T19:57:59.988Z,5.65
2022-11-05T20:01:03.872Z,5.22
2022-11-05T20:04:07.457Z,5.00
2022-11-05T20:07:11.557Z,5.00
2022-11-05T20:10:17.330Z,5.18
2022-11-05T20:13:20.310Z,4.95
2022-11-05T20:16:37.452Z,4.78
2022-11-05T20:19:45.596Z,4.27
2022-11-05T20:22:53.030Z,4.43
2022-11-05T20:25:55.972Z,4.72
2022-11-05T20:28:59.344Z,4.57
2022-11-05T20:32:02.821Z,4.47
2022-11-05T20:35:06.604Z,4.30
2022-11-05T20:38:10.157Z,4.57
2022-11-05T20:41:13.798Z,4.18
2022-11-05T20:44:19.016Z,4.30
2022-11-05T20:47:22.282Z,4.25
2022-11-05T20:50:25.173Z,4.47
2022-11-05T20:53:28.543Z,3.70
2022-11-05T20:56:35.116Z,4.50
2022-11-05T20:59:40.333Z,4.18
2022-11-05T21:02:43.574Z,4.18
2022-11-05T21:05:50.003Z,3.50
2022-11-05T21:08:56.706Z,3.70
2022-11-05T21:12:12.316Z,3.80
2022-11-05T21:15:15.647Z,3.75
2022-11-05T21:18:20.382Z,4.32
2022-11-05T21:21:23.581Z,3.70
2022-11-05T21:24:26.867Z,3.63
2022-11-05T21:27:29.799Z,3.70
2022-11-05T21:30:33.486Z,3.67
2022-11-05T21:33:36.319Z,3.85
2022-11-05T21:36:40.880Z,3.80
2022-11-05T21:39:44.611Z,3.83
2022-11-05T21:42:49.603Z,4.40
2022-11-05T21:45:53.199Z,3.67
2022-11-05T21:48:56.816Z,3.83
2022-11-05T21:52:18.297Z,3.63
2022-11-05T21:55:42.818Z,3.87
2022-11-05T21:59:04.261Z,3.95
2022-11-05T22:02:09.085Z,3.75
2022-11-05T22:05:12.395Z,4.05
2022-11-05T22:08:15.433Z,4.00
2022-11-05T22:11:18.560Z,4.00
2022-11-05T22:14:21.386Z,3.92
2022-11-05T22:17:24.498Z,3.85
2022-11-05T22:20:27.088Z,3.65
2022-11-05T22:23:29.953Z,3.90
2022-11-05T22:26:33.260Z,3.80
2022-11-05T22:29:37.035Z,4.40
2022-11-05T22:32:39.672Z,3.70
2022-11-05T22:35:42.588Z,3.17
2022-11-05T22:38:45.393Z,3.57
2022-11-05T22:41:48.582Z,3.23
2022-11-05T22:44:51.251Z,3.70
2022-11-05T22:47:54.063Z,3.12
2022-11-05T22:51:01.905Z,2.80
2022-11-05T22:54:06.226Z,3.40
2022-11-05T22:57:08.864Z,3.50
2022-11-05T23:00:18.720Z,3.28
2022-11-05T23:03:22.473Z,3.30
2022-11-05T23:06:49.576Z,3.08
2022-11-05T23:10:10.572Z,3.33
2022-11-05T23:13:13.390Z,4.17
2022-11-05T23:16:34.370Z,3.10
2022-11-05T23:19:55.952Z,3.08
2022-11-05T23:23:17.623Z,3.97
2022-11-05T23:26:42.894Z,3.40
2022-11-05T23:29:45.513Z,3.80
2022-11-05T23:32:50.146Z,4.10
2022-11-05T23:36:11.546Z,4.30
2022-11-05T23:39:14.505Z,3.92
2022-11-05T23:42:36.158Z,4.17
2022-11-05T23:45:52.644Z,3.60
2022-11-05T23:48:55.242Z,4.03
2022-11-05T23:52:00.514Z,4.70
2022-11-05T23:55:03.605Z,4.47
2022-11-05T23:58:07.649Z,3.67
